Time;durP1;ratioP1;P1;durP2;ratioP2;P2;SDS_P1;SDS_P2;PMS_P1;PMS_P2;Temp;Humidity;BMP_temperature;BMP_pressure;BME280_temperature;BME280_humidity;BME280_pressure;Samples;Min_cycle;Max_cycle;Signal;HPM_P1;HPM_P2
2022/04/14 00:01:34;;;;;;;39.40;13.00;;;;;;;11.20;68.81;96147.16;5027298;28;20053;-76
2022/04/14 00:04:02;;;;;;;34.38;11.45;;;;;;;11.18;69.16;96143.97;5026594;28;20052;-75
2022/04/14 00:06:29;;;;;;;39.20;12.90;;;;;;;11.15;69.10;96150.84;5026695;28;20045;-74
2022/04/14 00:08:56;;;;;;;34.30;12.13;;;;;;;11.13;68.65;96147.66;5026431;28;20523;-74
2022/04/14 00:11:22;;;;;;;40.03;13.02;;;;;;;11.10;68.31;96151.03;5025762;28;20057;-74
2022/04/14 00:13:49;;;;;;;23.83;9.73;;;;;;;11.06;68.06;96147.34;5026684;28;20718;-74
2022/04/14 00:16:15;;;;;;;47.00;13.13;;;;;;;11.02;68.52;96149.16;5025108;28;20069;-74
2022/04/14 00:18:41;;;;;;;40.00;11.75;;;;;;;10.97;68.46;96146.59;5026909;28;20061;-74
2022/04/14 00:21:09;;;;;;;40.85;13.02;;;;;;;10.92;68.50;96146.78;5025251;28;20046;-76
2022/04/14 00:23:36;;;;;;;34.75;11.50;;;;;;;10.89;68.76;96142.75;5026810;28;20566;-74
2022/04/14 00:26:02;;;;;;;34.28;11.02;;;;;;;10.88;68.59;96140.38;5025829;28;20097;-74
2022/04/14 00:28:29;;;;;;;40.53;12.43;;;;;;;10.85;69.46;96143.72;5026687;28;20056;-76
2022/04/14 00:30:55;;;;;;;26.95;10.57;;;;;;;10.84;69.06;96144.88;5025818;28;20049;-75
2022/04/14 00:33:22;;;;;;;46.20;12.55;;;;;;;10.84;68.29;96155.75;5025512;28;20053;-75
2022/04/14 00:35:48;;;;;;;34.47;10.90;;;;;;;10.77;68.57;96156.25;5026188;28;20110;-74
2022/04/14 00:38:16;;;;;;;38.63;11.43;;;;;;;10.75;68.68;96154.97;5025659;28;20072;-74
2022/04/14 00:40:42;;;;;;;36.60;10.93;;;;;;;10.73;68.91;96165.41;5025490;28;20558;-75
2022/04/14 00:43:09;;;;;;;41.38;11.65;;;;;;;10.69;68.76;96168.75;5025027;28;20500;-74
2022/04/14 00:45:35;;;;;;;36.17;11.75;;;;;;;10.68;68.86;96163.63;5025395;28;20119;-74
2022/04/14 00:48:02;;;;;;;35.65;10.95;;;;;;;10.65;68.95;96165.09;5024868;28;20103;-73
2022/04/14 00:50:29;;;;;;;39.58;11.48;;;;;;;10.62;69.67;96171.19;5025898;28;20053;-74
2022/04/14 00:52:56;;;;;;;33.20;10.88;;;;;;;10.58;69.55;96170.22;5025366;28;20070;-76
2022/04/14 00:55:23;;;;;;;41.10;11.80;;;;;;;10.55;69.51;96170.09;5024997;28;20050;-74
2022/04/14 00:57:50;;;;;;;35.83;11.35;;;;;;;10.52;69.41;96168.78;5025496;28;20057;-77
2022/04/14 01:00:16;;;;;;;38.38;11.35;;;;;;;10.48;69.17;96167.03;5024649;28;20057;-75
2022/04/14 01:02:43;;;;;;;35.55;10.55;;;;;;;10.44;69.27;96172.34;5025449;28;20045;-75
2022/04/14 01:05:10;;;;;;;36.30;10.90;;;;;;;10.40;68.94;96168.66;5024673;28;20103;-74
2022/04/14 01:07:37;;;;;;;36.53;11.50;;;;;;;10.35;69.19;96171.53;5025606;28;20546;-74
2022/04/14 01:10:05;;;;;;;49.40;12.70;;;;;;;10.30;69.43;96174.41;5024145;28;20052;-74
2022/04/14 01:12:33;;;;;;;41.97;12.20;;;;;;;10.25;69.54;96174.56;5025313;28;20045;-75
2022/04/14 01:14:59;;;;;;;28.60;10.15;;;;;;;10.18;69.50;96175.81;5024124;28;20049;-74
2022/04/14 01:17:25;;;;;;;40.20;11.43;;;;;;;10.15;69.98;96178.38;5025053;28;20053;-74
2022/04/14 01:19:52;;;;;;;39.78;11.50;;;;;;;10.12;69.75;96177.06;5024389;28;20053;-74
2022/04/14 01:22:24;;;;;;;47.47;12.50;;;;;;;10.10;69.76;96182.03;5024540;28;20061;-74
2022/04/14 01:24:55;;;;;;;27.30;8.30;;;;;;;10.04;70.06;96177.88;5025339;28;20359;-75
2022/04/14 01:27:21;;;;;;;36.85;10.80;;;;;;;10.01;70.17;96180.44;5024396;28;20056;-74
2022/04/14 01:29:51;;;;;;;37.85;10.30;;;;;;;9.99;70.22;96179.97;5025349;28;20049;-77
2022/04/14 01:32:18;;;;;;;51.65;11.00;;;;;;;9.94;70.29;96186.34;5022971;28;20056;-75
2022/04/14 01:34:44;;;;;;;60.03;11.60;;;;;;;9.93;70.45;96184.75;5025746;28;20111;-74
2022/04/14 01:37:11;;;;;;;53.42;10.20;;;;;;;9.92;70.46;96192.13;5024450;28;20140;-75
2022/04/14 01:39:38;;;;;;;68.07;10.85;;;;;;;9.92;70.69;96183.97;5025477;28;20056;-77
2022/04/14 01:42:06;;;;;;;64.95;10.38;;;;;;;9.92;70.91;96189.41;5024493;28;20076;-74
2022/04/14 01:44:33;;;;;;;59.15;9.77;;;;;;;9.91;71.21;96193.22;5024358;28;20432;-74
2022/04/14 01:47:00;;;;;;;76.75;10.30;;;;;;;9.89;70.88;96189.22;5025128;28;20534;-74
2022/04/14 01:49:26;;;;;;;84.18;11.27;;;;;;;9.86;70.82;96192.56;5024117;28;20080;-75
2022/04/14 01:51:53;;;;;;;54.75;9.35;;;;;;;9.81;70.88;96207.09;5026264;28;20057;-74
2022/04/14 01:54:19;;;;;;;47.10;8.90;;;;;;;9.77;71.11;96200.72;5028727;28;20049;-75
2022/04/14 01:56:46;;;;;;;61.53;9.45;;;;;;;9.72;71.02;96200.06;5029413;28;20053;-74
2022/04/14 01:59:14;;;;;;;66.18;9.75;;;;;;;9.70;71.33;96199.56;5027698;28;20128;-74
2022/04/14 02:01:40;;;;;;;43.58;8.15;;;;;;;9.68;71.55;96214.28;5029168;28;20045;-74
2022/04/14 02:04:07;;;;;;;57.88;8.73;;;;;;;9.66;71.60;96211.09;5028330;28;20049;-74
2022/04/14 02:06:34;;;;;;;47.92;8.68;;;;;;;9.60;72.22;96203.38;5029422;28;20133;-74
2022/04/14 02:09:01;;;;;;;75.35;9.13;;;;;;;9.54;72.37;96205.44;5028955;28;20057;-75
2022/04/14 02:11:27;;;;;;;77.65;10.52;;;;;;;9.52;72.96;96204.97;5028252;28;20671;-74
2022/04/14 02:13:54;;;;;;;62.00;9.38;;;;;;;9.48;72.87;96200.47;5028867;28;20107;-75
2022/04/14 02:16:21;;;;;;;64.95;10.88;;;;;;;9.48;73.02;96205.91;5027665;28;20103;-75
2022/04/14 02:18:49;;;;;;;54.58;10.32;;;;;;;9.41;72.83;96206.34;5029334;28;20076;-74
2022/04/14 02:21:15;;;;;;;83.55;10.80;;;;;;;9.37;73.15;96199.94;5027723;28;20049;-75
2022/04/14 02:23:41;;;;;;;48.50;9.38;;;;;;;9.37;73.37;96203.47;5029192;28;20056;-75
2022/04/14 02:26:08;;;;;;;63.03;9.80;;;;;;;9.34;73.17;96204.09;5027781;28;20057;-75
2022/04/14 02:28:34;;;;;;;91.13;12.70;;;;;;;9.35;73.33;96204.91;5028465;28;20684;-74
2022/04/14 02:31:01;;;;;;;72.47;10.40;;;;;;;9.36;73.04;96206.50;5027989;28;20574;-75
2022/04/14 02:33:29;;;;;;;71.78;11.68;;;;;;;9.37;73.29;96213.53;5028011;28;20045;-74
2022/04/14 02:35:55;;;;;;;57.67;11.00;;;;;;;9.36;73.39;96212.72;5028543;28;20412;-74
2022/04/14 02:38:22;;;;;;;68.25;11.63;;;;;;;9.36;73.37;96206.50;5027744;28;20635;-76
2022/04/14 02:40:48;;;;;;;50.65;10.48;;;;;;;9.35;73.37;96207.63;5028591;28;20600;-74
2022/04/14 02:43:14;;;;;;;78.53;12.23;;;;;;;9.34;73.27;96206.00;5027694;28;20504;-74
2022/04/14 02:45:41;;;;;;;64.72;11.82;;;;;;;9.35;73.38;96215.78;5028765;28;20052;-75
2022/04/14 02:48:08;;;;;;;65.15;12.45;;;;;;;9.35;73.46;96215.78;5044540;28;20049;-74
2022/04/14 02:50:36;;;;;;;62.63;11.85;;;;;;;9.35;73.45;96211.13;5048269;28;20820;-74
2022/04/14 02:53:03;;;;;;;36.90;11.15;;;;;;;9.34;73.33;96208.72;5047308;28;20135;-73
2022/04/14 02:55:29;;;;;;;35.45;10.48;;;;;;;9.35;73.39;96218.50;5048034;28;20064;-74
2022/04/14 02:57:56;;;;;;;38.67;11.25;;;;;;;9.33;73.34;96218.78;5047723;28;20064;-74
2022/04/14 03:00:22;;;;;;;42.28;11.68;;;;;;;9.31;73.67;96223.75;5047195;28;20057;-75
2022/04/14 03:02:49;;;;;;;41.53;11.77;;;;;;;9.32;73.58;96219.91;5047751;28;20415;-74
2022/04/14 03:05:15;;;;;;;40.25;11.63;;;;;;;9.31;73.49;96212.88;5046868;28;20084;-74
2022/04/14 03:07:43;;;;;;;37.53;11.98;;;;;;;9.29;73.67;96217.00;5048140;28;20149;-74
2022/04/14 03:10:10;;;;;;;31.63;10.52;;;;;;;9.28;73.63;96210.75;5046616;28;20052;-74
2022/04/14 03:12:41;;;;;;;40.20;11.45;;;;;;;9.27;73.73;96214.59;5048177;28;20045;-74
2022/04/14 03:15:08;;;;;;;41.95;11.55;;;;;;;9.28;73.52;96220.84;5046411;28;20053;-75
2022/04/14 03:17:35;;;;;;;40.38;11.20;;;;;;;9.26;73.75;96218.44;5047724;28;20049;-75
2022/04/14 03:20:02;;;;;;;48.47;11.68;;;;;;;9.25;73.33;96216.03;5047520;28;20075;-73
2022/04/14 03:22:32;;;;;;;71.68;11.75;;;;;;;9.24;73.51;96217.13;5047850;28;20049;-74
2022/04/14 03:25:00;;;;;;;48.38;10.27;;;;;;;9.22;73.13;96219.38;5047745;28;20049;-74
2022/04/14 03:27:27;;;;;;;57.95;12.20;;;;;;;9.20;72.77;96221.63;5046787;28;20059;-75
2022/04/14 03:29:54;;;;;;;42.63;9.93;;;;;;;9.16;72.90;96213.28;5047654;28;20052;-74
2022/04/14 03:32:22;;;;;;;42.70;10.20;;;;;;;9.13;72.78;96225.56;5046472;28;20103;-74
2022/04/14 03:34:48;;;;;;;51.58;11.07;;;;;;;9.10;72.95;96223.47;5047571;28;20053;-74
2022/04/14 03:37:15;;;;;;;47.95;10.57;;;;;;;9.09;72.45;96223.78;5046061;28;20060;-74
2022/04/14 03:39:41;;;;;;;51.75;11.35;;;;;;;9.05;72.86;96229.03;5047468;28;20049;-77
2022/04/14 03:42:09;;;;;;;62.17;11.48;;;;;;;9.04;73.23;96232.88;5045146;28;20049;-74
2022/04/14 03:44:36;;;;;;;63.85;12.50;;;;;;;9.03;73.00;96230.44;5045233;28;20045;-74
2022/04/14 03:47:02;;;;;;;48.75;11.35;;;;;;;9.01;73.60;96235.41;5046818;28;20041;-73
2022/04/14 03:49:29;;;;;;;58.03;12.60;;;;;;;8.99;74.02;96235.72;5047011;28;20052;-74
2022/04/14 03:51:55;;;;;;;36.60;10.73;;;;;;;9.00;74.09;96237.31;5047162;28;20061;-74
2022/04/14 03:54:22;;;;;;;46.55;12.68;;;;;;;9.01;74.24;96235.41;5046231;28;20053;-75
2022/04/14 03:56:49;;;;;;;34.45;11.43;;;;;;;9.01;74.16;96238.91;5047386;28;20528;-74
2022/04/14 03:59:16;;;;;;;36.05;12.48;;;;;;;9.01;74.24;96238.91;5045839;28;20052;-75
2022/04/14 04:01:43;;;;;;;39.00;12.20;;;;;;;9.01;74.46;96244.34;5046697;28;20069;-74
2022/04/14 04:04:09;;;;;;;38.90;12.43;;;;;;;9.02;74.22;96245.94;5045807;28;20056;-74
2022/04/14 04:06:36;;;;;;;63.38;13.18;;;;;;;9.00;74.60;96244.66;5046563;28;20432;-74
2022/04/14 04:09:03;;;;;;;38.55;11.15;;;;;;;9.01;74.53;96252.50;5046241;28;20044;-74
2022/04/14 04:11:29;;;;;;;70.88;12.70;;;;;;;8.96;74.06;96246.38;5046486;28;20045;-75
2022/04/14 04:13:56;;;;;;;59.13;12.52;;;;;;;8.94;74.31;96245.91;5045466;28;20051;-76
2022/04/14 04:16:24;;;;;;;50.45;12.57;;;;;;;8.89;74.07;96252.25;5044876;28;20053;-74
2022/04/14 04:18:50;;;;;;;48.25;12.85;;;;;;;8.88;74.04;96250.66;5046648;28;20064;-74
2022/04/14 04:21:17;;;;;;;51.20;13.23;;;;;;;8.89;74.57;96249.53;5044763;28;20057;-75
2022/04/14 04:23:43;;;;;;;34.85;11.98;;;;;;;8.90;74.18;96259.28;5046662;28;20431;-74
2022/04/14 04:26:10;;;;;;;35.63;13.65;;;;;;;8.90;74.79;96259.28;5045264;28;20579;-74
2022/04/14 04:28:36;;;;;;;42.35;13.65;;;;;;;8.91;75.39;96260.09;5046659;28;20052;-75
2022/04/14 04:31:03;;;;;;;33.05;12.82;;;;;;;8.92;75.50;96248.91;5045417;28;20045;-75
2022/04/14 04:33:31;;;;;;;36.83;12.57;;;;;;;8.96;75.73;96246.38;5046096;28;20076;-75
2022/04/14 04:35:57;;;;;;;37.67;12.68;;;;;;;8.99;75.37;96257.44;5046044;28;20420;-74
2022/04/14 04:38:24;;;;;;;41.00;13.13;;;;;;;9.01;75.09;96263.34;5045322;28;20454;-74
2022/04/14 04:40:50;;;;;;;30.48;12.13;;;;;;;9.00;75.34;96261.75;5045977;28;20099;-74
2022/04/14 04:43:16;;;;;;;35.30;12.70;;;;;;;9.01;75.17;96260.63;5045131;28;20053;-74
2022/04/14 04:45:44;;;;;;;37.33;14.00;;;;;;;8.98;75.25;96269.41;5046112;28;20053;-74
2022/04/14 04:48:10;;;;;;;34.63;13.57;;;;;;;9.01;74.89;96266.06;5044716;28;20045;-75
2022/04/14 04:50:38;;;;;;;41.90;13.13;;;;;;;8.98;75.26;96261.28;5045800;28;20052;-74
2022/04/14 04:53:05;;;;;;;36.72;12.90;;;;;;;8.99;75.24;96267.50;5045081;28;20048;-75
2022/04/14 04:55:32;;;;;;;34.70;13.07;;;;;;;9.00;75.28;96269.91;5046118;28;20070;-74
2022/04/14 04:57:58;;;;;;;29.77;12.60;;;;;;;8.94;75.81;96265.72;5045658;28;20525;-75
2022/04/14 05:00:25;;;;;;;30.00;12.02;;;;;;;8.97;75.55;96273.22;5044867;28;20052;-75
2022/04/14 05:02:51;;;;;;;34.15;12.98;;;;;;;9.01;75.29;96281.56;5045835;28;20503;-74
2022/04/14 05:05:21;;;;;;;32.65;12.80;;;;;;;9.02;75.13;96283.97;5044528;28;20064;-76
2022/04/14 05:07:49;;;;;;;26.52;11.57;;;;;;;9.05;75.23;96294.22;5045466;28;20053;-75
2022/04/14 05:10:16;;;;;;;33.42;13.10;;;;;;;9.08;75.41;96285.47;5044234;28;20098;-74
2022/04/14 05:12:42;;;;;;;26.45;11.80;;;;;;;9.08;75.72;96295.50;5044747;28;20053;-74
2022/04/14 05:15:10;;;;;;;34.80;12.85;;;;;;;9.10;75.05;96296.81;5043869;28;20075;-74
2022/04/14 05:17:36;;;;;;;38.72;13.95;;;;;;;9.14;75.00;96300.53;5045254;28;20053;-74
2022/04/14 05:20:03;;;;;;;24.42;13.05;;;;;;;9.18;75.12;96291.75;5044884;28;20359;-74
2022/04/14 05:22:30;;;;;;;32.17;13.40;;;;;;;9.22;74.96;96296.25;5045196;28;20418;-74
2022/04/14 05:24:58;;;;;;;23.70;11.27;;;;;;;9.26;75.44;96289.09;5045470;28;20063;-75
2022/04/14 05:27:24;;;;;;;32.50;12.93;;;;;;;9.34;75.06;96292.94;5044597;28;20056;-74
2022/04/14 05:29:51;;;;;;;26.50;12.00;;;;;;;9.40;75.09;96299.88;5045148;28;20522;-75
2022/04/14 05:32:17;;;;;;;37.28;13.68;;;;;;;9.47;75.18;96304.88;5044088;28;20419;-75
2022/04/14 05:34:44;;;;;;;31.95;12.57;;;;;;;9.53;75.09;96303.63;5045598;28;20055;-74
2022/04/14 05:37:10;;;;;;;29.88;13.55;;;;;;;9.59;74.98;96308.59;5044074;28;20049;-74
2022/04/14 05:39:37;;;;;;;39.60;15.10;;;;;;;9.65;75.30;96301.09;5045448;28;20055;-74
2022/04/14 05:42:05;;;;;;;32.03;15.02;;;;;;;9.72;75.71;96306.13;5043980;28;20049;-74
2022/04/14 05:44:32;;;;;;;38.08;17.13;;;;;;;9.79;76.06;96301.81;5044483;28;20546;-75
2022/04/14 05:46:58;;;;;;;33.85;16.30;;;;;;;9.88;76.28;96304.56;5045320;28;20041;-74
2022/04/14 05:49:25;;;;;;;36.95;17.08;;;;;;;9.92;76.89;96305.56;5044476;28;20053;-74
2022/04/14 05:51:51;;;;;;;39.47;18.15;;;;;;;9.78;78.24;96300.22;5045332;28;20049;-74
2022/04/14 05:54:18;;;;;;;43.30;19.67;;;;;;;9.72;79.53;96295.25;5044122;28;20045;-74
2022/04/14 05:56:44;;;;;;;50.15;19.98;;;;;;;9.72;79.94;96306.91;5045553;28;20048;-74
2022/04/14 05:59:16;;;;;;;37.20;19.15;;;;;;;9.85;79.89;96307.91;5043723;28;20049;-74
2022/04/14 06:01:43;;;;;;;43.08;20.00;;;;;;;10.01;80.03;96308.28;5045008;28;20056;-74
2022/04/14 06:04:09;;;;;;;32.83;18.55;;;;;;;10.14;79.77;96305.47;5043992;28;20049;-75
2022/04/14 06:06:36;;;;;;;40.00;19.98;;;;;;;10.30;79.60;96310.50;5045154;28;20052;-74
2022/04/14 06:09:02;;;;;;;31.67;18.70;;;;;;;10.35;79.68;96310.34;5044669;28;20049;-74
2022/04/14 06:11:29;;;;;;;40.80;20.35;;;;;;;10.43;79.89;96315.78;5044704;28;20064;-74
2022/04/14 06:13:56;;;;;;;35.47;18.90;;;;;;;10.48;79.41;96306.66;5044242;28;20052;-74
2022/04/14 06:16:23;;;;;;;40.00;20.25;;;;;;;10.51;80.00;96316.13;5043859;28;20053;-74
2022/04/14 06:18:50;;;;;;;44.20;20.50;;;;;;;10.51;80.47;96316.94;5045446;28;20150;-75
2022/04/14 06:21:18;;;;;;;41.65;20.75;;;;;;;10.58;78.81;96316.44;5043644;28;20053;-75
2022/04/14 06:23:45;;;;;;;38.33;20.55;;;;;;;10.50;78.91;96315.34;5045228;28;20667;-74
2022/04/14 06:26:11;;;;;;;36.80;19.88;;;;;;;10.50;78.80;96317.25;5043815;28;20052;-74
2022/04/14 06:28:38;;;;;;;40.75;19.83;;;;;;;10.68;78.78;96318.88;5045015;28;20049;-75
2022/04/14 06:31:05;;;;;;;33.25;18.40;;;;;;;10.86;78.29;96314.25;5043785;28;20072;-74
2022/04/14 06:33:33;;;;;;;40.13;20.23;;;;;;;10.93;78.06;96317.28;5044758;28;20403;-75
2022/04/14 06:35:59;;;;;;;37.05;20.00;;;;;;;10.97;77.79;96315.53;5045095;28;20048;-74
2022/04/14 06:38:27;;;;;;;39.75;19.65;;;;;;;11.07;78.05;96317.94;5045413;28;20083;-74
2022/04/14 06:40:53;;;;;;;38.92;19.75;;;;;;;11.19;77.32;96314.53;5048183;28;20057;-74
2022/04/14 06:43:20;;;;;;;37.92;19.85;;;;;;;11.21;77.43;96321.25;5047043;28;20068;-75
2022/04/14 06:45:47;;;;;;;36.83;19.08;;;;;;;11.23;77.01;96324.47;5048484;28;20049;-74
2022/04/14 06:48:14;;;;;;;37.17;19.65;;;;;;;11.34;76.82;96326.88;5047369;28;20489;-74
2022/04/14 06:50:41;;;;;;;36.63;18.60;;;;;;;11.51;76.63;96324.09;5048365;28;20062;-74
2022/04/14 06:53:08;;;;;;;31.40;17.85;;;;;;;11.54;75.38;96331.66;5047431;28;20056;-74
2022/04/14 06:55:36;;;;;;;38.72;19.45;;;;;;;11.54;74.78;96330.81;5048129;28;20602;-75
2022/04/14 06:58:03;;;;;;;36.75;18.45;;;;;;;11.61;74.69;96331.94;5047836;28;20056;-74
2022/04/14 07:00:30;;;;;;;39.05;19.80;;;;;;;11.73;73.98;96345.69;5047329;28;20052;-74
2022/04/14 07:02:58;;;;;;;33.30;18.80;;;;;;;11.72;74.40;96338.66;5048210;28;20396;-74
2022/04/14 07:05:25;;;;;;;38.78;18.92;;;;;;;11.87;74.52;96344.72;5046905;28;20045;-74
2022/04/14 07:07:53;;;;;;;34.60;18.13;;;;;;;12.06;74.04;96339.69;5048754;28;20067;-74
2022/04/14 07:10:19;;;;;;;36.42;18.00;;;;;;;12.16;72.91;96344.78;5046688;28;20526;-74
2022/04/14 07:12:46;;;;;;;31.73;16.98;;;;;;;12.28;72.64;96339.41;5047798;28;20055;-74
2022/04/14 07:15:14;;;;;;;30.95;17.42;;;;;;;12.47;72.55;96346.38;5047047;28;20041;-75
2022/04/14 07:17:41;;;;;;;32.03;18.05;;;;;;;12.64;72.19;96345.50;5047611;28;20049;-74
2022/04/14 07:20:09;;;;;;;27.80;16.02;;;;;;;12.76;70.21;96342.84;5046679;28;20057;-75
2022/04/14 07:22:42;;;;;;;28.48;16.55;;;;;;;12.90;69.62;96348.06;5047436;28;20040;-74
2022/04/14 07:25:10;;;;;;;27.17;16.02;;;;;;;13.09;68.26;96361.22;5047585;28;20072;-76
2022/04/14 07:27:37;;;;;;;27.67;16.42;;;;;;;13.35;68.75;96350.09;5046961;28;20543;-73
2022/04/14 07:30:05;;;;;;;29.77;15.90;;;;;;;13.62;65.09;96351.47;5047403;28;20061;-73
2022/04/14 07:32:35;;;;;;;27.60;14.98;;;;;;;14.64;62.59;96353.31;5047017;28;20065;-75
2022/04/14 07:35:03;;;;;;;28.55;13.85;;;;;;;16.00;58.58;96346.25;5048210;28;20064;-73
2022/04/14 07:37:29;;;;;;;22.20;14.70;;;;;;;16.88;54.60;96358.63;5046519;28;20049;-74
2022/04/14 07:39:56;;;;;;;26.75;14.45;;;;;;;17.38;52.98;96354.22;5047212;28;20080;-75
2022/04/14 07:42:31;;;;;;;30.40;15.30;;;;;;;17.86;50.60;96360.28;5045736;28;20057;-74
2022/04/14 07:44:58;;;;;;;29.60;14.50;;;;;;;17.47;50.65;96357.53;5046786;28;20049;-74
2022/04/14 07:47:25;;;;;;;30.20;14.73;;;;;;;17.94;50.89;96359.25;5046893;28;20455;-76
2022/04/14 07:49:51;;;;;;;33.70;14.23;;;;;;;18.74;48.32;96351.97;5046207;28;20053;-74
2022/04/14 07:52:18;;;;;;;24.77;13.52;;;;;;;19.15;47.42;96354.13;5047129;28;20045;-74
2022/04/14 07:54:45;;;;;;;23.70;13.02;;;;;;;19.87;45.47;96353.84;5046301;28;20088;-73
2022/04/14 07:57:12;;;;;;;30.20;13.85;;;;;;;20.59;44.12;96355.34;5046570;28;20080;-73
2022/04/14 07:59:39;;;;;;;30.73;14.32;;;;;;;20.89;41.45;96366.25;5045876;28;20045;-74
2022/04/14 08:02:06;;;;;;;29.25;15.45;;;;;;;21.24;41.70;96362.91;5046587;28;20056;-73
2022/04/14 08:04:33;;;;;;;27.10;14.00;;;;;;;21.84;42.69;96362.41;5046713;28;20069;-74
2022/04/14 08:06:59;;;;;;;26.38;12.73;;;;;;;22.48;38.87;96370.09;5046673;28;20095;-75
2022/04/14 08:09:26;;;;;;;34.95;13.93;;;;;;;22.81;38.10;96368.13;5046042;28;20045;-74
2022/04/14 08:11:52;;;;;;;46.65;14.35;;;;;;;22.94;38.99;96369.34;5045994;28;20045;-75
2022/04/14 08:14:19;;;;;;;36.05;13.38;;;;;;;22.89;36.84;96372.50;5045706;28;20397;-74
2022/04/14 08:16:47;;;;;;;43.67;14.63;;;;;;;22.79;38.14;96370.50;5045822;28;20061;-74
2022/04/14 08:19:13;;;;;;;41.10;14.38;;;;;;;22.60;38.66;96375.28;5046461;28;20056;-75
2022/04/14 08:21:40;;;;;;;34.72;13.63;;;;;;;22.68;38.06;96381.63;5045504;28;20057;-75
2022/04/14 08:24:07;;;;;;;43.17;14.95;;;;;;;22.60;38.73;96388.34;5046242;28;20459;-74
2022/04/14 08:26:34;;;;;;;38.80;13.63;;;;;;;22.91;38.45;96381.22;5046097;28;20045;-74
2022/04/14 08:29:00;;;;;;;36.22;13.73;;;;;;;23.28;36.14;96377.22;5046248;28;20609;-74
2022/04/14 08:31:27;;;;;;;32.35;13.50;;;;;;;22.74;39.78;96376.47;5045391;28;20128;-75
2022/04/14 08:33:55;;;;;;;30.20;13.02;;;;;;;23.23;37.39;96380.38;5045657;28;20057;-75
2022/04/14 08:36:22;;;;;;;24.77;12.30;;;;;;;23.65;36.80;96374.75;5045899;28;20056;-76
2022/04/14 08:38:50;;;;;;;28.50;13.95;;;;;;;23.42;35.71;96382.75;5045397;28;20056;-75
2022/04/14 08:41:21;;;;;;;28.35;13.50;;;;;;;23.29;36.03;96381.59;5045767;28;20041;-76
2022/04/14 08:43:49;;;;;;;31.15;13.57;;;;;;;23.23;37.86;96374.84;5044718;28;20068;-75
2022/04/14 08:46:19;;;;;;;41.75;14.88;;;;;;;22.94;37.94;96386.00;5045770;28;20132;-75
2022/04/14 08:48:51;;;;;;;35.33;13.40;;;;;;;23.52;35.43;96387.47;5045636;28;20061;-75
2022/04/14 08:51:20;;;;;;;32.17;13.30;;;;;;;24.05;36.43;96388.47;5045250;28;20080;-75
2022/04/14 08:53:48;;;;;;;39.97;13.90;;;;;;;23.45;35.65;96390.28;5045722;28;20283;-76
2022/04/14 08:56:15;;;;;;;46.45;14.45;;;;;;;22.40;36.99;96396.28;5044818;28;20051;-75
2022/04/14 08:58:43;;;;;;;37.17;13.70;;;;;;;22.51;40.48;96390.72;5045784;28;20048;-75
2022/04/14 09:01:11;;;;;;;42.72;15.05;;;;;;;22.40;39.45;96393.50;5043724;28;20059;-76
2022/04/14 09:03:38;;;;;;;58.22;14.18;;;;;;;22.52;41.02;96398.66;5045705;28;20045;-76
2022/04/14 09:06:05;;;;;;;26.42;12.85;;;;;;;22.62;39.23;96397.88;5044809;28;20060;-74
2022/04/14 09:08:33;;;;;;;30.30;13.70;;;;;;;22.91;38.59;96403.44;5045896;28;20055;-75
2022/04/14 09:11:01;;;;;;;25.58;13.93;;;;;;;22.09;38.61;96397.75;5044841;28;20138;-75
2022/04/14 09:13:28;;;;;;;33.10;14.40;;;;;;;21.63;40.00;96398.38;5044851;28;20130;-75
2022/04/14 09:15:54;;;;;;;28.55;13.77;;;;;;;21.86;39.90;96400.81;5045344;28;20048;-75
2022/04/14 09:18:21;;;;;;;33.90;15.27;;;;;;;21.71;38.97;96399.19;5044408;28;20538;-75
2022/04/14 09:20:50;;;;;;;26.45;13.07;;;;;;;21.64;40.93;96394.41;5045121;28;20049;-76
2022/04/14 09:23:20;;;;;;;32.55;14.15;;;;;;;21.65;40.03;96392.44;5044515;28;20049;-75
2022/04/14 09:25:49;;;;;;;29.80;14.25;;;;;;;21.48;40.05;96397.50;5045586;28;20080;-75
2022/04/14 09:28:17;;;;;;;28.73;13.85;;;;;;;21.28;41.36;96399.72;5044379;28;20052;-75
2022/04/14 09:30:59;;;;;;;30.23;13.35;;;;;;;21.34;40.15;96397.41;5045497;28;20080;-75
2022/04/14 09:33:26;;;;;;;28.33;14.95;;;;;;;21.44;41.54;96396.69;5044734;28;20082;-76
2022/04/14 09:36:05;;;;;;;29.65;14.57;;;;;;;21.47;41.80;96387.59;5044983;28;20060;-75
2022/04/14 09:38:49;;;;;;;30.38;15.07;;;;;;;21.52;42.24;96395.56;5044965;28;20120;-75
2022/04/14 09:41:29;;;;;;;30.98;13.40;;;;;;;21.73;41.16;96391.28;5043590;28;20694;-75
2022/04/14 09:43:57;;;;;;;30.98;12.38;;;;;;;21.89;40.34;96388.97;5044708;28;20088;-75
2022/04/14 09:46:24;;;;;;;22.70;12.00;;;;;;;21.97;39.86;96390.56;5043753;28;20055;-74
2022/04/14 09:49:06;;;;;;;24.25;12.38;;;;;;;22.06;38.15;96390.22;5045131;28;20044;-76
2022/04/14 09:51:35;;;;;;;26.95;11.48;;;;;;;22.13;38.51;96382.75;5044520;28;20052;-76
2022/04/14 09:54:12;;;;;;;25.48;12.02;;;;;;;22.23;37.92;96388.69;5044448;28;20136;-74
2022/04/14 09:56:48;;;;;;;23.85;10.77;;;;;;;22.37;39.52;96380.41;5045178;28;20124;-75
2022/04/14 09:59:16;;;;;;;23.85;11.38;;;;;;;22.74;39.03;96382.00;5043503;28;20082;-75
2022/04/14 10:01:43;;;;;;;17.75;9.95;;;;;;;22.91;36.75;96381.22;5044648;28;20049;-75
2022/04/14 10:04:29;;;;;;;24.52;11.30;;;;;;;23.08;39.53;96380.44;5043836;28;20048;-75
2022/04/14 10:07:06;;;;;;;22.95;11.57;;;;;;;23.17;36.11;96375.25;5044894;28;20057;-74
2022/04/14 10:09:34;;;;;;;22.15;11.30;;;;;;;23.53;36.41;96385.47;5044299;28;20495;-75
2022/04/14 10:12:02;;;;;;;26.80;11.60;;;;;;;23.43;33.64;96378.75;5044076;28;20044;-75
2022/04/14 10:14:29;;;;;;;25.08;10.30;;;;;;;23.60;35.72;96371.59;5047453;28;20041;-75
2022/04/14 10:16:59;;;;;;;21.10;10.40;;;;;;;23.93;36.06;96373.06;5047960;28;20140;-75
2022/04/14 10:19:26;;;;;;;21.33;11.23;;;;;;;23.93;34.54;96367.50;5048260;28;20055;-75
2022/04/14 10:21:55;;;;;;;22.45;10.50;;;;;;;23.67;34.35;96379.91;5047718;28;20552;-75
2022/04/14 10:24:24;;;;;;;23.30;10.93;;;;;;;23.67;35.91;96369.59;5048314;28;20056;-75
2022/04/14 10:26:52;;;;;;;21.65;10.07;;;;;;;23.85;36.66;96377.03;5048174;28;20499;-75
2022/04/14 10:29:21;;;;;;;26.67;11.07;;;;;;;23.99;35.45;96381.75;5047967;28;20581;-75
2022/04/14 10:31:53;;;;;;;19.38;9.98;;;;;;;23.73;34.51;96377.50;5048065;28;20510;-75
2022/04/14 10:34:20;;;;;;;22.95;9.88;;;;;;;23.65;33.99;96373.97;5047585;28;20053;-76
2022/04/14 10:36:48;;;;;;;20.42;8.45;;;;;;;23.48;33.53;96372.00;5048698;28;20056;-75
2022/04/14 10:39:15;;;;;;;20.58;9.25;;;;;;;23.76;35.32;96369.16;5046978;28;20595;-75
2022/04/14 10:41:46;;;;;;;19.10;8.70;;;;;;;23.99;32.54;96371.44;5048414;28;20057;-75
2022/04/14 10:44:13;;;;;;;24.95;9.65;;;;;;;24.10;34.11;96372.16;5046729;28;20049;-75
2022/04/14 10:46:46;;;;;;;23.80;10.65;;;;;;;24.14;34.91;96367.38;5047948;28;20136;-76
2022/04/14 10:49:14;;;;;;;18.63;11.15;;;;;;;24.08;35.59;96368.22;5047392;28;20049;-75
2022/04/14 10:51:40;;;;;;;25.00;12.00;;;;;;;23.85;35.88;96360.38;5047485;28;20070;-75
2022/04/14 10:54:09;;;;;;;21.73;11.10;;;;;;;23.94;35.04;96360.72;5047356;28;20041;-75
2022/04/14 10:56:50;;;;;;;26.80;12.32;;;;;;;24.05;35.56;96364.22;5047583;28;20458;-75
2022/04/14 10:59:19;;;;;;;19.15;11.57;;;;;;;24.18;33.98;96362.59;5047607;28;20057;-75
2022/04/14 11:01:55;;;;;;;27.38;12.38;;;;;;;24.43;35.28;96358.84;5047002;28;20060;-74
2022/04/14 11:04:27;;;;;;;25.45;12.18;;;;;;;24.64;35.07;96361.50;5047530;28;22148;-74
2022/04/14 11:06:54;;;;;;;24.38;11.13;;;;;;;24.64;33.86;96355.94;5047377;28;20079;-75
2022/04/14 11:09:51;;;;;;;26.40;11.82;;;;;;;24.49;36.21;96354.47;5046850;28;20056;-75
2022/04/14 11:12:20;;;;;;;23.83;11.90;;;;;;;24.50;34.54;96356.03;5046449;28;20064;-75
2022/04/14 11:14:49;;;;;;;22.10;11.38;;;;;;;24.51;34.12;96360.41;5046894;28;20044;-76
2022/04/14 11:18:00;;;;;;;19.45;10.48;;;;;;;24.65;35.41;96363.09;5047342;28;20675;-75
2022/04/14 11:20:56;;;;;;;33.17;14.45;;;;;;;24.90;33.02;96362.88;5046320;28;20049;-74
2022/04/14 11:23:28;;;;;;;27.42;13.27;;;;;;;25.12;34.92;96357.91;5046180;28;20053;-75
2022/04/14 11:26:10;;;;;;;21.27;10.90;;;;;;;24.61;33.95;96359.53;5047736;28;20053;-75